createdAt,value
2023-05-01T00:01:31.990Z,96507.81
2023-05-01T00:03:33.845Z,96509.75
2023-05-01T00:05:35.495Z,96501.94
2023-05-01T00:07:37.010Z,96500.31
2023-05-01T00:09:38.750Z,96495.81
2023-05-01T00:11:40.242Z,96490.13
2023-05-01T00:13:42.083Z,96490.66
2023-05-01T00:15:44.966Z,96491.31
2023-05-01T00:17:46.419Z,96489.28
2023-05-01T00:19:51.593Z,96449.72
2023-05-01T00:21:53.346Z,96486.00
2023-05-01T00:23:55.030Z,96486.38
2023-05-01T00:25:56.676Z,96482.31
2023-05-01T00:27:58.317Z,96485.63
2023-05-01T00:29:59.799Z,96483.97
2023-05-01T00:32:02.800Z,96472.56
2023-05-01T00:34:04.312Z,96471.56
2023-05-01T00:36:06.277Z,96469.09
2023-05-01T00:38:07.980Z,96465.59
2023-05-01T00:40:09.925Z,96467.91
2023-05-01T00:42:11.407Z,96422.75
2023-05-01T00:44:12.900Z,96454.97
2023-05-01T00:46:14.807Z,96461.13
2023-05-01T00:48:18.086Z,96456.63
2023-05-01T00:50:20.721Z,96459.91
2023-05-01T00:52:24.357Z,96452.94
2023-05-01T00:54:26.659Z,96451.19
2023-05-01T00:56:28.357Z,96461.19
2023-05-01T00:58:30.160Z,96446.41
2023-05-01T01:00:32.770Z,96439.00
2023-05-01T01:02:34.323Z,96438.00
2023-05-01T01:04:37.268Z,96442.31
2023-05-01T01:06:49.278Z,96439.00
2023-05-01T01:09:00.157Z,96434.31
2023-05-01T01:11:14.282Z,96424.69
2023-05-01T01:13:23.159Z,96415.88
2023-05-01T01:15:33.880Z,96399.22
2023-05-01T01:17:42.291Z,96413.03
2023-05-01T01:20:04.476Z,96422.03
2023-05-01T01:22:12.215Z,96411.19
2023-05-01T01:24:46.215Z,96412.03
2023-05-01T01:27:26.673Z,96409.75
2023-05-01T01:29:43.869Z,96407.91
2023-05-01T01:31:57.260Z,96411.66
2023-05-01T01:34:07.969Z,96405.06
2023-05-01T01:36:15.882Z,96409.38
2023-05-01T01:38:22.489Z,96413.28
2023-05-01T01:40:31.957Z,96398.84
2023-05-01T01:42:37.611Z,96393.81
2023-05-01T01:44:43.251Z,96406.94
2023-05-01T01:46:45.868Z,96398.19
2023-05-01T01:48:50.865Z,96403.91
2023-05-01T01:50:57.031Z,96411.06
2023-05-01T01:53:01.504Z,96401.69
2023-05-01T01:55:08.451Z,96398.66
2023-05-01T01:57:13.489Z,96407.47
2023-05-01T01:59:16.486Z,96403.44
2023-05-01T02:01:19.525Z,96408.69
2023-05-01T02:03:23.459Z,96401.09
2023-05-01T02:05:26.814Z,96394.88
2023-05-01T02:07:31.451Z,96400.28
2023-05-01T02:09:35.250Z,96396.41
2023-05-01T02:11:38.057Z,96389.06
2023-05-01T02:13:42.490Z,96391.53
2023-05-01T02:15:45.192Z,96386.78
2023-05-01T02:17:48.600Z,96389.19
2023-05-01T02:19:51.336Z,96382.41
2023-05-01T02:21:54.561Z,96382.31
2023-05-01T02:24:00.395Z,96387.78
2023-05-01T02:26:04.236Z,96367.91
2023-05-01T02:28:08.402Z,96379.09
2023-05-01T02:30:11.224Z,96381.13
2023-05-01T02:32:13.008Z,96378.09
2023-05-01T02:34:14.522Z,96376.34
2023-05-01T02:36:16.345Z,96377.09
2023-05-01T02:38:18.751Z,96376.34
2023-05-01T02:40:21.763Z,96375.06
2023-05-01T02:42:25.238Z,96373.59
2023-05-01T02:44:28.956Z,96366.06
2023-05-01T02:46:33.076Z,96369.81
2023-05-01T02:48:36.046Z,96374.31
2023-05-01T02:50:38.751Z,96366.44
2023-05-01T02:52:40.598Z,96363.50
2023-05-01T02:54:43.121Z,96364.06
2023-05-01T02:56:46.100Z,96353.41
2023-05-01T02:58:47.981Z,96358.38
2023-05-01T03:00:49.789Z,96355.91
2023-05-01T03:02:51.659Z,96358.09
2023-05-01T03:04:53.163Z,96352.16
2023-05-01T03:06:54.713Z,96361.13
2023-05-01T03:08:56.217Z,96354.16
2023-05-01T03:10:57.712Z,96360.69
2023-05-01T03:13:00.591Z,96351.50
2023-05-01T03:15:02.062Z,96352.34
2023-05-01T03:17:03.660Z,96350.50
2023-05-01T03:19:05.220Z,96351.25
2023-05-01T03:21:06.964Z,96344.72
2023-05-01T03:23:08.439Z,96353.34
2023-05-01T03:25:10.121Z,96344.53
2023-05-01T03:27:12.299Z,96297.84
2023-05-01T03:29:15.131Z,96342.25
2023-05-01T03:31:16.580Z,96334.09
2023-05-01T03:33:18.041Z,96338.22
2023-05-01T03:35:20.015Z,96333.53
2023-05-01T03:37:21.508Z,96332.72
2023-05-01T03:39:23.014Z,96328.09
2023-05-01T03:41:24.724Z,96320.50
2023-05-01T03:43:26.222Z,96330.69
2023-05-01T03:45:29.034Z,96317.03
2023-05-01T03:47:30.657Z,96319.13
2023-05-01T03:49:32.143Z,96319.50
2023-05-01T03:51:33.622Z,96323.16
2023-05-01T03:53:35.172Z,96318.22
2023-05-01T03:55:36.699Z,96305.56
2023-05-01T03:57:38.265Z,96311.31
2023-05-01T03:59:39.749Z,96321.50
2023-05-01T04:01:42.743Z,96315.56
2023-05-01T04:03:44.341Z,96311.97
2023-05-01T04:05:46.022Z,96316.84
2023-05-01T04:07:47.619Z,96317.91
2023-05-01T04:09:49.128Z,96317.47
2023-05-01T04:11:50.644Z,96318.75
2023-05-01T04:13:52.190Z,96313.53
2023-05-01T04:15:53.710Z,96320.25
2023-05-01T04:17:56.750Z,96324.81
2023-05-01T04:19:58.540Z,96319.75
2023-05-01T04:22:00.195Z,96324.44
2023-05-01T04:24:01.872Z,96317.84
2023-05-01T04:26:03.373Z,96315.81
2023-05-01T04:28:05.207Z,96313.78
2023-05-01T04:30:07.761Z,96320.03
2023-05-01T04:32:09.275Z,96316.75
2023-05-01T04:34:12.082Z,96321.06
2023-05-01T04:36:13.719Z,96325.16
2023-05-01T04:38:15.208Z,96322.06
2023-05-01T04:40:17.394Z,96303.03
2023-05-01T04:42:18.865Z,96320.41
2023-05-01T04:44:20.398Z,96324.06
2023-05-01T04:46:22.043Z,96325.44
2023-05-01T04:48:23.792Z,96319.13
2023-05-01T04:50:27.124Z,96322.53
2023-05-01T04:52:28.628Z,96310.88
2023-05-01T04:54:30.225Z,96318.03
2023-05-01T04:56:31.844Z,96319.50
2023-05-01T04:58:33.385Z,96323.53
2023-05-01T05:00:34.903Z,96330.50
2023-05-01T05:02:36.534Z,96333.34
2023-05-01T05:04:38.217Z,96321.50
2023-05-01T05:06:41.100Z,96333.34
2023-05-01T05:08:42.667Z,96328.94
2023-05-01T05:10:44.206Z,96325.81
2023-05-01T05:12:45.741Z,96330.25
2023-05-01T05:14:47.197Z,96329.97
2023-05-01T05:16:48.797Z,96338.09
2023-05-01T05:18:50.447Z,96334.75
2023-05-01T05:20:51.997Z,96331.97
2023-05-01T05:22:54.906Z,96334.66
2023-05-01T05:24:56.426Z,96344.91
2023-05-01T05:26:57.920Z,96345.38
2023-05-01T05:28:59.423Z,96338.03
2023-05-01T05:31:00.916Z,96344.63
2023-05-01T05:33:02.996Z,96328.41
2023-05-01T05:35:05.468Z,96336.13
2023-05-01T05:37:06.973Z,96337.97
2023-05-01T05:39:09.854Z,96337.78
2023-05-01T05:41:11.366Z,96341.88
2023-05-01T05:43:12.835Z,96335.38
2023-05-01T05:45:14.534Z,96333.03
2023-05-01T05:47:15.987Z,96333.03
2023-05-01T05:49:17.517Z,96337.09
2023-05-01T05:51:18.977Z,96305.13
2023-05-01T05:53:20.799Z,96332.03
2023-05-01T05:55:23.732Z,96337.00
2023-05-01T05:57:25.182Z,96343.97
2023-05-01T05:59:26.633Z,96331.13
2023-05-01T06:01:28.112Z,96332.00
2023-05-01T06:03:29.952Z,96337.41
2023-05-01T06:05:31.749Z,96334.41
2023-05-01T06:07:33.319Z,96337.72
2023-05-01T06:09:34.812Z,96335.22
2023-05-01T06:11:37.663Z,96330.78
2023-05-01T06:13:39.152Z,96338.59
2023-05-01T06:15:41.213Z,96329.91
2023-05-01T06:17:43.025Z,96336.75
2023-05-01T06:19:44.655Z,96332.53
2023-05-01T06:21:46.119Z,96330.03
2023-05-01T06:23:47.605Z,96334.22
2023-05-01T06:25:49.121Z,96330.91
2023-05-01T06:27:52.205Z,96331.84
2023-05-01T06:29:53.869Z,96328.16
2023-05-01T06:31:55.638Z,96334.13
2023-05-01T06:33:57.578Z,96330.25
2023-05-01T06:35:59.056Z,96338.00
2023-05-01T06:38:00.552Z,96341.63
2023-05-01T06:40:02.038Z,96344.97
2023-05-01T06:42:03.660Z,96340.75
2023-05-01T06:44:06.467Z,96341.63
2023-05-01T06:46:07.943Z,96349.25
2023-05-01T06:48:09.770Z,96352.13
2023-05-01T06:50:11.590Z,96349.25
2023-05-01T06:52:13.089Z,96355.81
2023-05-01T06:54:15.108Z,96357.44
2023-05-01T06:56:16.632Z,96356.97
2023-05-01T06:58:23.887Z,96360.41
2023-05-01T07:00:27.838Z,96355.56
2023-05-01T07:02:29.463Z,96371.19
2023-05-01T07:04:31.786Z,96364.63
2023-05-01T07:06:33.623Z,96355.09
2023-05-01T07:08:35.162Z,96366.25
2023-05-01T07:10:36.793Z,96362.03
2023-05-01T07:12:38.284Z,96363.66
2023-05-01T07:14:39.737Z,96368.81
2023-05-01T07:16:42.612Z,96361.81
2023-05-01T07:18:44.159Z,96355.88
2023-05-01T07:20:45.644Z,96357.78
2023-05-01T07:22:47.247Z,96359.84
2023-05-01T07:24:48.753Z,96359.03
2023-05-01T07:26:50.254Z,96351.63
2023-05-01T07:28:51.818Z,96351.63
2023-05-01T07:30:53.302Z,96352.91
2023-05-01T07:32:56.210Z,96351.34
2023-05-01T07:34:58.646Z,96347.25
2023-05-01T07:37:00.183Z,96350.78
2023-05-01T07:39:01.692Z,96336.94
2023-05-01T07:41:03.224Z,96351.31
2023-05-01T07:43:04.869Z,96348.44
2023-05-01T07:45:07.531Z,96348.97
2023-05-01T07:47:09.011Z,96339.13
2023-05-01T07:49:11.938Z,96342.66
2023-05-01T07:51:13.814Z,96346.75
2023-05-01T07:53:15.290Z,96347.81
2023-05-01T07:55:17.024Z,96330.75
2023-05-01T07:57:19.044Z,96340.56
2023-05-01T07:59:20.544Z,96338.50
2023-05-01T08:01:22.122Z,96338.97
2023-05-01T08:03:23.819Z,96344.34
2023-05-01T08:05:26.913Z,96336.28
2023-05-01T08:07:28.370Z,96344.72
2023-05-01T08:09:30.140Z,96348.44
2023-05-01T08:11:31.659Z,96350.28
2023-05-01T08:13:33.132Z,96340.00
2023-05-01T08:15:34.614Z,96341.44
2023-05-01T08:17:36.756Z,96342.06
2023-05-01T08:19:38.335Z,96344.94
2023-05-01T08:21:41.239Z,96334.47
2023-05-01T08:23:42.721Z,96349.06
2023-05-01T08:25:44.449Z,96340.03
2023-05-01T08:27:46.079Z,96342.28
2023-05-01T08:29:47.748Z,96334.25
2023-05-01T08:31:49.359Z,96339.63
2023-05-01T08:33:50.888Z,96338.59
2023-05-01T08:35:52.733Z,96337.41
2023-05-01T08:37:55.600Z,96340.06
2023-05-01T08:39:57.290Z,96334.91
2023-05-01T08:41:59.305Z,96337.78
2023-05-01T08:44:01.241Z,96333.25
2023-05-01T08:46:07.729Z,96333.44
2023-05-01T08:48:11.017Z,96339.59
2023-05-01T08:50:14.079Z,96335.44
2023-05-01T08:52:15.746Z,96337.47
2023-05-01T08:54:20.347Z,96337.50
2023-05-01T08:56:22.168Z,96330.50
2023-05-01T08:58:24.866Z,96330.53
2023-05-01T09:00:27.274Z,96330.06
2023-05-01T09:02:28.983Z,96334.53
2023-05-01T09:04:32.114Z,96332.06
2023-05-01T09:06:33.665Z,96332.63
2023-05-01T09:08:35.294Z,96332.84
2023-05-01T09:10:45.067Z,96332.50
2023-05-01T09:12:54.118Z,96330.00
2023-05-01T09:14:56.889Z,96325.91
2023-05-01T09:16:58.745Z,96331.59
2023-05-01T09:19:00.352Z,96333.84
2023-05-01T09:21:02.105Z,96337.34
2023-05-01T09:23:03.888Z,96326.25
2023-05-01T09:25:06.356Z,96325.75
2023-05-01T09:27:10.862Z,96325.09
2023-05-01T09:29:12.484Z,96323.16
2023-05-01T09:31:24.608Z,96324.38
2023-05-01T09:33:26.339Z,96326.75
2023-05-01T09:35:28.061Z,96324.75
2023-05-01T09:37:31.026Z,96314.94
2023-05-01T09:39:32.671Z,96326.81
2023-05-01T09:41:34.187Z,96327.66
2023-05-01T09:43:37.715Z,96325.06
2023-05-01T09:45:39.200Z,96324.63
2023-05-01T09:47:41.257Z,96332.94
2023-05-01T09:49:46.900Z,96324.09
2023-05-01T09:51:49.283Z,96327.06
2023-05-01T09:53:51.479Z,96327.72
2023-05-01T09:56:00.892Z,96322.22
2023-05-01T09:58:02.382Z,96323.88
2023-05-01T10:00:06.532Z,96325.94
2023-05-01T10:02:08.156Z,96319.66
2023-05-01T10:04:10.342Z,96317.31
2023-05-01T10:06:12.267Z,96326.50
2023-05-01T10:08:14.925Z,96327.72
2023-05-01T10:10:18.574Z,96326.06
2023-05-01T10:12:23.303Z,96331.09
2023-05-01T10:14:24.782Z,96318.47
2023-05-01T10:16:30.166Z,96321.72
2023-05-01T10:18:33.674Z,96320.31
2023-05-01T10:20:35.535Z,96317.19
2023-05-01T10:22:37.066Z,96325.63
2023-05-01T10:24:38.735Z,96323.28
2023-05-01T10:26:41.614Z,96320.31
2023-05-01T10:28:44.369Z,96313.91
2023-05-01T10:30:46.456Z,96319.56
2023-05-01T10:32:49.405Z,96322.13
2023-05-01T10:34:55.209Z,96324.75
2023-05-01T10:37:01.593Z,96327.16
2023-05-01T10:39:03.190Z,96321.47
2023-05-01T10:41:04.796Z,96319.94
2023-05-01T10:43:17.383Z,96322.78
2023-05-01T10:45:28.638Z,96320.94
2023-05-01T10:47:45.613Z,96324.22
2023-05-01T10:50:05.189Z,96317.00
2023-05-01T10:52:06.754Z,96317.75
2023-05-01T10:54:24.212Z,96318.31
2023-05-01T10:56:41.911Z,96321.59
2023-05-01T10:58:58.369Z,96313.81
2023-05-01T11:01:28.625Z,96319.78
2023-05-01T11:03:36.413Z,96318.56
2023-05-01T11:06:12.252Z,96316.44
2023-05-01T11:08:29.495Z,96319.50
2023-05-01T11:10:30.994Z,96320.53
2023-05-01T11:12:51.843Z,96315.41
2023-05-01T11:15:06.418Z,96307.88
2023-05-01T11:17:07.908Z,96316.09
2023-05-01T11:19:11.082Z,96307.69
2023-05-01T11:21:15.248Z,96307.84
2023-05-01T11:23:23.173Z,96299.66
2023-05-01T11:25:26.695Z,96302.78
2023-05-01T11:27:28.594Z,96305.81
2023-05-01T11:29:31.627Z,96302.50
2023-05-01T11:31:33.416Z,96306.22
2023-05-01T11:33:35.050Z,96307.09
2023-05-01T11:35:37.210Z,96308.56
2023-05-01T11:37:41.384Z,96308.91
2023-05-01T11:39:49.906Z,96297.41
2023-05-01T11:42:06.950Z,96309.16
2023-05-01T11:44:11.208Z,96310.97
2023-05-01T11:46:14.399Z,96306.81
2023-05-01T11:48:15.997Z,96308.94
2023-05-01T11:50:17.507Z,96310.97
2023-05-01T11:52:19.196Z,96305.94
2023-05-01T11:54:22.054Z,96305.88
2023-05-01T11:56:27.086Z,96307.25
2023-05-01T11:58:35.404Z,96301.25
2023-05-01T12:00:38.515Z,96309.00
2023-05-01T12:02:40.255Z,96295.34
2023-05-01T12:04:42.039Z,96299.38
2023-05-01T12:06:44.876Z,96293.88
2023-05-01T12:08:49.690Z,96290.81
2023-05-01T12:10:53.961Z,96282.81
2023-05-01T12:12:55.524Z,96290.72
2023-05-01T12:14:57.163Z,96290.81
2023-05-01T12:16:59.651Z,96289.13
2023-05-01T12:19:01.577Z,96285.47
2023-05-01T12:21:03.442Z,96296.56
2023-05-01T12:23:05.551Z,96287.28
2023-05-01T12:25:07.834Z,96287.88
2023-05-01T12:27:10.761Z,96289.13
2023-05-01T12:29:13.103Z,96291.97
2023-05-01T12:31:15.807Z,96294.41
2023-05-01T12:33:19.287Z,96295.25
2023-05-01T12:35:21.381Z,96289.94
2023-05-01T12:37:22.885Z,96290.41
2023-05-01T12:39:24.762Z,96295.72
2023-05-01T12:41:33.653Z,96293.28
2023-05-01T12:43:37.566Z,96295.94
2023-05-01T12:45:39.621Z,96301.91
2023-05-01T12:47:41.184Z,96292.84
2023-05-01T12:49:42.879Z,96302.44
2023-05-01T12:51:47.078Z,96276.13
2023-05-01T12:53:48.816Z,96301.16
2023-05-01T12:55:51.567Z,96299.25
2023-05-01T12:57:53.927Z,96304.84
2023-05-01T13:00:01.084Z,96309.31
2023-05-01T13:02:04.680Z,96306.69
2023-05-01T13:04:06.473Z,96309.00
2023-05-01T13:06:08.306Z,96307.41
2023-05-01T13:08:09.845Z,96310.09
2023-05-01T13:10:11.615Z,96304.97
2023-05-01T13:12:13.447Z,96306.59
2023-05-01T13:14:15.426Z,96309.09
2023-05-01T13:16:18.621Z,96305.00
2023-05-01T13:18:20.331Z,96314.50
2023-05-01T13:20:26.366Z,96317.19
2023-05-01T13:22:29.879Z,96319.91
2023-05-01T13:24:39.280Z,96318.28
2023-05-01T13:26:40.783Z,96322.78
2023-05-01T13:28:43.818Z,96319.91
2023-05-01T13:30:45.430Z,96314.56
2023-05-01T13:32:48.741Z,96312.50
2023-05-01T13:34:51.052Z,96309.63
2023-05-01T13:36:52.550Z,96305.53
2023-05-01T13:38:55.140Z,96288.69
2023-05-01T13:40:56.918Z,96287.25
2023-05-01T13:42:58.460Z,96290.31
2023-05-01T13:45:00.040Z,96305.69
2023-05-01T13:47:02.824Z,96301.38
2023-05-01T13:49:06.452Z,96296.22
2023-05-01T13:51:08.182Z,96296.78
2023-05-01T13:53:09.938Z,96288.78
2023-05-01T13:55:12.229Z,96292.38
2023-05-01T13:57:13.738Z,96292.50
2023-05-01T13:59:15.492Z,96299.28
2023-05-01T14:01:18.409Z,96308.34
2023-05-01T14:03:20.445Z,96271.16
2023-05-01T14:05:27.820Z,96289.94
2023-05-01T14:07:29.267Z,96287.38
2023-05-01T14:09:35.663Z,96289.00
2023-05-01T14:11:43.346Z,96287.03
2023-05-01T14:13:45.748Z,96276.88
2023-05-01T14:15:47.670Z,96284.59
2023-05-01T14:17:50.505Z,96281.16
2023-05-01T14:19:52.479Z,96279.88
2023-05-01T14:21:55.293Z,96276.97
2023-05-01T14:23:56.992Z,96284.59
2023-05-01T14:25:58.530Z,96285.00
2023-05-01T14:28:01.270Z,96283.06
2023-05-01T14:30:06.295Z,96278.00
2023-05-01T14:32:08.935Z,96288.19
2023-05-01T14:34:15.282Z,96300.22
2023-05-01T14:36:18.761Z,96303.03
2023-05-01T14:38:25.248Z,96308.91
2023-05-01T14:40:27.356Z,96326.06
2023-05-01T14:42:29.276Z,96322.03
2023-05-01T14:44:30.892Z,96330.31
2023-05-01T14:46:33.604Z,96334.53
2023-05-01T14:48:36.376Z,96342.72
2023-05-01T14:50:38.598Z,96348.03
2023-05-01T14:52:40.583Z,96348.34
2023-05-01T14:54:45.644Z,96345.53
2023-05-01T14:56:48.131Z,96340.88
2023-05-01T14:58:49.823Z,96344.78
2023-05-01T15:00:51.286Z,96360.50
2023-05-01T15:02:53.009Z,96343.06
2023-05-01T15:04:54.553Z,96358.16
2023-05-01T15:06:56.145Z,96359.53
2023-05-01T15:08:57.772Z,96358.09
2023-05-01T15:11:00.735Z,96354.00
2023-05-01T15:13:02.234Z,96332.66
2023-05-01T15:15:04.309Z,96325.66
2023-05-01T15:17:05.905Z,96323.97
2023-05-01T15:19:07.389Z,96324.72
2023-05-01T15:21:08.879Z,96328.88
2023-05-01T15:23:10.554Z,96334.56
2023-05-01T15:25:12.058Z,96320.97
2023-05-01T15:27:15.153Z,96321.25
2023-05-01T15:29:16.619Z,96330.75
2023-05-01T15:31:18.929Z,96321.59
2023-05-01T15:33:21.000Z,96317.22
2023-05-01T15:35:22.830Z,96326.50
2023-05-01T15:37:24.345Z,96332.03
2023-05-01T15:39:26.512Z,96329.25
2023-05-01T15:41:28.176Z,96330.41
2023-05-01T15:43:31.020Z,96330.16
2023-05-01T15:45:33.609Z,96328.72
2023-05-01T15:47:35.183Z,96328.81
2023-05-01T15:49:36.685Z,96329.81
2023-05-01T15:51:38.302Z,96331.94
2023-05-01T15:53:39.832Z,96330.41
2023-05-01T15:55:41.280Z,96340.53
2023-05-01T15:57:45.749Z,96339.56
2023-05-01T15:59:48.579Z,96346.31
2023-05-01T16:01:52.909Z,96345.50
2023-05-01T16:03:54.570Z,96346.00
2023-05-01T16:05:56.238Z,96326.50
2023-05-01T16:08:00.345Z,96347.44
2023-05-01T16:10:02.465Z,96352.81
2023-05-01T16:12:04.356Z,96356.53
2023-05-01T16:14:09.278Z,96354.47
2023-05-01T16:16:12.935Z,96356.47
2023-05-01T16:18:18.077Z,96356.69
2023-05-01T16:20:21.419Z,96370.19
2023-05-01T16:22:22.909Z,96363.94
2023-05-01T16:24:25.907Z,96359.84
2023-05-01T16:26:29.728Z,96381.91
2023-05-01T16:28:33.248Z,96383.78
2023-05-01T16:30:34.753Z,96387.00
2023-05-01T16:32:39.878Z,96375.91
2023-05-01T16:34:42.705Z,96376.59
2023-05-01T16:36:45.157Z,96374.22
2023-05-01T16:38:47.436Z,96374.66
2023-05-01T16:40:49.244Z,96365.88
2023-05-01T16:42:51.114Z,96373.00
2023-05-01T16:44:52.651Z,96371.44
2023-05-01T16:46:55.785Z,96367.94
2023-05-01T16:48:58.855Z,96373.44
2023-05-01T16:51:00.354Z,96373.06
2023-05-01T16:53:01.965Z,96376.28
2023-05-01T16:55:03.719Z,96372.88
2023-05-01T16:57:05.274Z,96369.56
2023-05-01T16:59:06.904Z,96377.16
2023-05-01T17:01:08.454Z,96372.06
2023-05-01T17:03:10.239Z,96381.25
2023-05-01T17:05:13.159Z,96372.00
2023-05-01T17:07:14.654Z,96371.34
2023-05-01T17:09:16.757Z,96370.81
2023-05-01T17:11:18.544Z,96366.56
2023-05-01T17:13:20.596Z,96372.78
2023-05-01T17:15:22.071Z,96374.00
2023-05-01T17:17:23.853Z,96375.22
2023-05-01T17:19:25.597Z,96370.50
2023-05-01T17:21:28.438Z,96377.56
2023-05-01T17:23:30.063Z,96383.31
2023-05-01T17:25:31.544Z,96387.25
2023-05-01T17:27:33.328Z,96380.25
2023-05-01T17:29:35.134Z,96388.66
2023-05-01T17:31:36.633Z,96377.13
2023-05-01T17:33:38.182Z,96379.34
2023-05-01T17:35:39.729Z,96394.19
2023-05-01T17:37:42.561Z,96389.66
2023-05-01T17:39:44.077Z,96397.88
2023-05-01T17:41:45.695Z,96398.63
2023-05-01T17:43:47.673Z,96402.81
2023-05-01T17:45:49.336Z,96400.78
2023-05-01T17:47:50.998Z,96402.41
2023-05-01T17:49:52.517Z,96410.28
2023-05-01T17:51:54.049Z,96407.00
2023-05-01T17:53:56.912Z,96411.09
2023-05-01T17:55:58.406Z,96410.72
2023-05-01T17:58:00.036Z,96407.41
2023-05-01T18:00:02.029Z,96423.06
2023-05-01T18:02:04.055Z,96419.59
2023-05-01T18:04:05.928Z,96423.91
2023-05-01T18:06:07.744Z,96425.97
2023-05-01T18:08:09.667Z,96421.44
2023-05-01T18:10:12.477Z,96424.75
2023-05-01T18:12:14.698Z,96432.09
2023-05-01T18:14:16.189Z,96442.38
2023-05-01T18:16:17.710Z,96452.16
2023-05-01T18:18:19.917Z,96455.19
2023-05-01T18:20:21.454Z,96456.03
2023-05-01T18:22:23.028Z,96460.72
2023-05-01T18:24:25.594Z,96461.09
2023-05-01T18:26:28.525Z,96459.25
2023-05-01T18:28:30.298Z,96463.91
2023-05-01T18:30:32.690Z,96465.00
2023-05-01T18:32:46.856Z,96462.66
2023-05-01T18:34:49.561Z,96464.19
2023-05-01T18:36:52.934Z,96464.22
2023-05-01T18:38:54.620Z,96455.44
2023-05-01T18:40:56.111Z,96462.34
2023-05-01T18:42:59.219Z,96455.59
2023-05-01T18:45:00.735Z,96455.34
2023-05-01T18:47:02.312Z,96458.63
2023-05-01T18:49:03.789Z,96457.75
2023-05-01T18:51:08.342Z,96469.16
2023-05-01T18:53:10.307Z,96461.53
2023-05-01T18:55:11.792Z,96466.72
2023-05-01T18:57:13.339Z,96473.88
2023-05-01T18:59:16.201Z,96465.47
2023-05-01T19:01:18.444Z,96460.66
2023-05-01T19:03:19.928Z,96474.09
2023-05-01T19:05:21.838Z,96473.63
2023-05-01T19:07:24.076Z,96480.16
2023-05-01T19:09:25.523Z,96490.16
2023-05-01T19:11:27.585Z,96484.63
2023-05-01T19:13:29.061Z,96483.06
2023-05-01T19:15:32.773Z,96490.81
2023-05-01T19:17:34.312Z,96487.09
2023-05-01T19:19:35.886Z,96485.78
2023-05-01T19:21:37.363Z,96482.50
2023-05-01T19:23:39.464Z,96497.03
2023-05-01T19:25:40.999Z,96492.91
2023-05-01T19:27:42.525Z,96500.47
2023-05-01T19:29:44.468Z,96504.59
2023-05-01T19:31:48.439Z,96501.75
2023-05-01T19:33:50.707Z,96497.22
2023-05-01T19:35:52.267Z,96504.59
2023-05-01T19:37:54.283Z,96503.81
2023-05-01T19:39:55.808Z,96496.44
2023-05-01T19:41:58.250Z,96506.34
2023-05-01T19:44:00.301Z,96501.53
2023-05-01T19:46:05.775Z,96502.19
2023-05-01T19:48:09.020Z,96517.75
2023-05-01T19:50:11.255Z,96519.03
2023-05-01T19:52:12.713Z,96520.59
2023-05-01T19:54:14.193Z,96520.75
2023-05-01T19:56:16.427Z,96515.53
2023-05-01T19:58:18.313Z,96520.59
2023-05-01T20:00:22.586Z,96520.03
2023-05-01T20:02:24.842Z,96523.78
2023-05-01T20:04:28.919Z,96535.63
2023-05-01T20:06:30.532Z,96526.63
2023-05-01T20:08:32.578Z,96527.63
2023-05-01T20:10:34.089Z,96535.63
2023-05-01T20:12:35.586Z,96538.50
2023-05-01T20:14:37.148Z,96548.78
2023-05-01T20:16:38.737Z,96547.50
2023-05-01T20:18:40.264Z,96547.50
2023-05-01T20:20:43.830Z,96554.28
2023-05-01T20:22:45.960Z,96562.09
2023-05-01T20:24:47.476Z,96561.59
2023-05-01T20:26:49.779Z,96568.09
2023-05-01T20:28:51.258Z,96562.81
2023-05-01T20:30:53.683Z,96568.97
2023-05-01T20:32:55.936Z,96568.16
2023-05-01T20:34:58.885Z,96573.03
2023-05-01T20:37:01.783Z,96573.28
2023-05-01T20:39:05.596Z,96575.63
2023-05-01T20:41:06.969Z,96589.09
2023-05-01T20:43:09.145Z,96584.91
2023-05-01T20:45:10.678Z,96581.38
2023-05-01T20:47:12.158Z,96584.97
2023-05-01T20:49:15.888Z,96586.06
2023-05-01T20:51:17.681Z,96588.84
2023-05-01T20:53:20.537Z,96583.34
2023-05-01T20:55:25.182Z,96583.56
2023-05-01T20:57:27.300Z,96585.03
2023-05-01T20:59:28.883Z,96588.66
2023-05-01T21:01:30.767Z,96592.28
2023-05-01T21:03:32.671Z,96599.09
2023-05-01T21:05:34.794Z,96598.66
2023-05-01T21:07:37.700Z,96598.59
2023-05-01T21:09:45.044Z,96596.56
2023-05-01T21:11:46.640Z,96596.94
2023-05-01T21:13:48.111Z,96600.34
2023-05-01T21:15:50.681Z,96599.25
2023-05-01T21:17:52.376Z,96601.16
2023-05-01T21:19:55.260Z,96608.16
2023-05-01T21:21:56.747Z,96598.97
2023-05-01T21:23:58.941Z,96610.72
2023-05-01T21:26:01.879Z,96612.56
2023-05-01T21:28:03.577Z,96597.94
2023-05-01T21:30:06.563Z,96604.28
2023-05-01T21:32:08.503Z,96604.66
2023-05-01T21:34:10.460Z,96603.75
2023-05-01T21:36:13.657Z,96606.59
2023-05-01T21:38:16.908Z,96599.16
2023-05-01T21:40:18.918Z,96609.63
2023-05-01T21:42:21.806Z,96613.84
2023-05-01T21:44:30.481Z,96603.94
2023-05-01T21:46:32.117Z,96612.75
2023-05-01T21:48:34.596Z,96618.25
2023-05-01T21:50:37.613Z,96617.25
2023-05-01T21:52:39.385Z,96613.31
2023-05-01T21:54:40.839Z,96613.84
2023-05-01T21:56:43.319Z,96621.00
2023-05-01T21:58:46.167Z,96626.34
2023-05-01T22:00:47.708Z,96626.25
2023-05-01T22:02:51.806Z,96622.31
2023-05-01T22:04:54.353Z,96607.00
2023-05-01T22:06:55.794Z,96624.31
2023-05-01T22:08:57.245Z,96623.22
2023-05-01T22:10:59.635Z,96621.13
2023-05-01T22:13:01.092Z,96627.63
2023-05-01T22:15:04.652Z,96620.66
2023-05-01T22:17:07.939Z,96616.63
2023-05-01T22:19:10.146Z,96623.31
2023-05-01T22:21:11.602Z,96626.34
2023-05-01T22:23:13.865Z,96624.69
2023-05-01T22:25:15.309Z,96625.06
2023-05-01T22:27:17.436Z,96627.06
2023-05-01T22:29:20.076Z,96623.13
2023-05-01T22:31:24.070Z,96620.00
2023-05-01T22:33:26.532Z,96628.63
2023-05-01T22:35:27.984Z,96622.19
2023-05-01T22:37:30.181Z,96627.88
2023-05-01T22:39:32.503Z,96627.56
2023-05-01T22:41:34.889Z,96628.41
2023-05-01T22:43:37.099Z,96633.72
2023-05-01T22:45:38.631Z,96642.59
2023-05-01T22:47:41.603Z,96638.09
2023-05-01T22:49:43.159Z,96636.91
2023-05-01T22:51:44.651Z,96641.59
2023-05-01T22:53:47.120Z,96640.13
2023-05-01T22:55:49.201Z,96641.66
2023-05-01T22:57:51.340Z,96635.69
2023-05-01T22:59:53.622Z,96640.00
2023-05-01T23:01:55.216Z,96640.84
2023-05-01T23:03:58.276Z,96639.03
2023-05-01T23:06:00.465Z,96655.34
2023-05-01T23:08:01.917Z,96641.41
2023-05-01T23:10:03.788Z,96646.06
2023-05-01T23:12:06.560Z,96649.81
2023-05-01T23:14:08.014Z,96655.13
2023-05-01T23:16:09.505Z,96651.81
2023-05-01T23:18:14.717Z,96654.66
2023-05-01T23:20:21.621Z,96659.13
2023-05-01T23:22:23.769Z,96665.28
2023-05-01T23:24:25.699Z,96662.81
2023-05-01T23:26:28.081Z,96657.50
2023-05-01T23:28:29.546Z,96654.84
2023-05-01T23:30:31.729Z,96661.78
2023-05-01T23:32:34.371Z,96647.44
2023-05-01T23:34:35.901Z,96666.34
2023-05-01T23:36:38.705Z,96663.69
2023-05-01T23:38:41.282Z,96654.28
2023-05-01T23:40:43.081Z,96661.25
2023-05-01T23:42:45.166Z,96664.09
2023-05-01T23:44:47.300Z,96659.63
2023-05-01T23:46:48.811Z,96655.66
2023-05-01T23:48:50.964Z,96659.97
2023-05-01T23:50:52.616Z,96662.31
2023-05-01T23:52:56.585Z,96660.63
2023-05-01T23:54:58.089Z,96663.81
2023-05-01T23:57:00.248Z,96650.59
2023-05-01T23:59:02.131Z,96665.00
